Time;durP1;ratioP1;P1;durP2;ratioP2;P2;SDS_P1;SDS_P2;PMS_P1;PMS_P2;Temp;Humidity;BMP_temperature;BMP_pressure;BME280_temperature;BME280_humidity;BME280_pressure;Samples;Min_cycle;Max_cycle;Signal;HPM_P1;HPM_P2
2021/07/21 00:00:51;;;;;;;7.93;7.13;;;15.10;95.90;;;;;;5052762;28;20806;-61
2021/07/21 00:03:18;;;;;;;9.93;7.13;;;15.30;97.40;;;;;;5053053;28;20656;-61
2021/07/21 00:05:44;;;;;;;7.80;7.00;;;15.20;97.10;;;;;;5053001;28;20419;-61
2021/07/21 00:08:09;;;;;;;9.93;8.60;;;15.30;97.40;;;;;;5052660;28;20806;-61
2021/07/21 00:10:36;;;;;;;10.63;9.50;;;15.50;98.40;;;;;;5052893;28;20213;-61
2021/07/21 00:16:02;;;;;;;7.30;6.60;;;15.50;97.50;;;;;;5053117;28;20906;-61
2021/07/21 00:18:35;;;;;;;9.40;8.43;;;15.40;96.90;;;;;;5052838;28;20422;-61
2021/07/21 00:21:01;;;;;;;9.33;8.33;;;15.20;96.50;;;;;;5052754;28;20406;-60
2021/07/21 00:23:28;;;;;;;10.47;9.43;;;15.50;99.10;;;;;;5052626;28;20472;-61
2021/07/21 00:25:56;;;;;;;7.90;7.10;;;15.70;99.70;;;;;;5052643;28;20403;-61
2021/07/21 00:28:22;;;;;;;7.87;7.07;;;15.80;99.50;;;;;;5052613;28;20454;-61
2021/07/21 00:30:48;;;;;;;9.20;8.23;;;15.80;99.70;;;;;;5052677;28;20894;-61
2021/07/21 00:33:14;;;;;;;9.17;7.87;;;15.60;98.00;;;;;;5052484;28;20164;-61
2021/07/21 00:35:41;;;;;;;8.73;6.90;;;15.60;98.60;;;;;;5052421;28;20405;-61
2021/07/21 00:38:06;;;;;;;7.80;7.10;;;15.60;98.50;;;;;;5051993;28;20488;-61
2021/07/21 00:40:32;;;;;;;8.80;7.00;;;15.40;96.80;;;;;;5052451;28;20831;-61
2021/07/21 00:42:59;;;;;;;8.93;7.47;;;15.60;98.70;;;;;;5052285;28;20172;-61
2021/07/21 00:45:24;;;;;;;8.93;7.33;;;15.70;99.60;;;;;;5052373;28;20325;-61
2021/07/21 00:47:50;;;;;;;9.03;7.43;;;15.50;98.20;;;;;;5051875;28;20935;-61
2021/07/21 00:50:15;;;;;;;8.53;7.30;;;15.70;99.90;;;;;;5052311;28;20235;-61
2021/07/21 00:52:44;;;;;;;8.93;8.03;;;15.80;99.90;;;;;;5067134;28;20171;-61
2021/07/21 00:55:14;;;;;;;8.73;7.00;;;15.80;99.20;;;;;;5072150;28;20683;-61
2021/07/21 00:57:40;;;;;;;8.53;7.20;;;15.70;99.30;;;;;;5071514;28;20429;-61
2021/07/21 01:00:09;;;;;;;7.93;6.30;;;15.80;99.90;;;;;;5071960;28;20928;-61
2021/07/21 01:02:35;;;;;;;6.70;6.10;;;15.50;98.00;;;;;;5071989;28;20783;-61
2021/07/21 01:05:04;;;;;;;7.10;6.40;;;15.50;98.30;;;;;;5071785;28;20501;-61
2021/07/21 01:07:30;;;;;;;10.33;7.13;;;15.50;99.20;;;;;;5071572;28;20199;-61
2021/07/21 01:09:56;;;;;;;8.93;7.37;;;15.60;99.60;;;;;;5071624;28;20550;-61
2021/07/21 01:12:35;;;;;;;7.20;6.50;;;15.50;98.70;;;;;;5071296;28;20206;-61
2021/07/21 01:15:14;;;;;;;7.60;6.90;;;15.60;99.90;;;;;;5071880;28;20242;-61
2021/07/21 01:17:51;;;;;;;9.73;6.77;;;15.80;99.90;;;;;;5071041;28;20773;-61
2021/07/21 01:20:49;;;;;;;8.50;7.67;;;15.80;99.90;;;;;;5071846;28;20405;-61
2021/07/21 01:23:52;;;;;;;7.70;6.97;;;15.70;99.90;;;;;;5070513;28;20428;-60
2021/07/21 01:26:27;;;;;;;7.30;6.30;;;15.60;99.90;;;;;;5071439;28;20421;-61
2021/07/21 01:28:55;;;;;;;7.37;6.73;;;15.70;99.90;;;;;;5071717;28;20445;-61
2021/07/21 01:31:26;;;;;;;11.10;7.10;;;15.80;99.90;;;;;;5071753;28;20402;-60
2021/07/21 01:33:53;;;;;;;9.23;6.27;;;15.90;99.90;;;;;;5071674;28;20539;-58
2021/07/21 01:36:23;;;;;;;7.87;7.07;;;15.80;99.90;;;;;;5071373;28;20784;-59
2021/07/21 01:38:53;;;;;;;8.50;6.60;;;15.50;98.60;;;;;;5071619;28;20442;-61
2021/07/21 01:41:21;;;;;;;7.60;6.77;;;15.50;99.50;;;;;;5071654;28;20409;-61
2021/07/21 01:43:49;;;;;;;6.57;5.43;;;15.40;98.90;;;;;;5071537;28;20405;-61
2021/07/21 01:46:21;;;;;;;7.10;6.17;;;15.50;99.90;;;;;;5071340;28;20422;-61
2021/07/21 01:48:48;;;;;;;7.87;6.03;;;15.50;99.90;;;;;;5071417;28;20558;-61
2021/07/21 01:51:15;;;;;;;7.70;6.03;;;15.50;99.90;;;;;;5071559;28;20907;-61
2021/07/21 01:53:43;;;;;;;7.10;5.90;;;15.50;99.90;;;;;;5071420;28;20481;-61
2021/07/21 01:56:10;;;;;;;7.10;6.10;;;15.50;99.90;;;;;;5071190;28;20431;-61
2021/07/21 01:58:37;;;;;;;8.60;6.60;;;15.60;99.90;;;;;;5071567;28;20424;-61
2021/07/21 02:01:06;;;;;;;6.80;5.80;;;15.60;99.90;;;;;;5071288;28;21008;-60
2021/07/21 02:03:33;;;;;;;6.43;5.83;;;15.70;99.90;;;;;;5071185;28;20437;-61
2021/07/21 02:06:03;;;;;;;5.83;5.23;;;15.30;98.80;;;;;;5071184;28;20478;-61
2021/07/21 02:08:29;;;;;;;7.33;6.50;;;15.40;99.90;;;;;;5071254;28;20488;-60
2021/07/21 02:10:58;;;;;;;6.57;5.93;;;15.50;99.90;;;;;;5071235;28;20441;-61
2021/07/21 02:13:26;;;;;;;6.23;5.63;;;15.60;99.90;;;;;;5071362;28;20174;-61
2021/07/21 02:15:52;;;;;;;5.20;4.73;;;15.60;99.90;;;;;;5071744;28;20467;-62
2021/07/21 02:18:19;;;;;;;6.43;5.70;;;15.60;99.90;;;;;;5071110;28;20429;-61
2021/07/21 02:20:50;;;;;;;6.50;5.90;;;15.60;99.90;;;;;;5071442;28;20405;-61
2021/07/21 02:23:19;;;;;;;6.40;5.80;;;15.60;99.90;;;;;;5071666;28;20405;-61
2021/07/21 02:25:45;;;;;;;5.40;4.90;;;15.70;99.90;;;;;;5075175;28;20409;-61
2021/07/21 02:28:13;;;;;;;6.20;5.60;;;15.70;99.90;;;;;;5074732;28;20519;-61
2021/07/21 02:30:41;;;;;;;7.00;5.67;;;15.60;99.90;;;;;;5074924;28;20414;-61
2021/07/21 02:33:18;;;;;;;4.93;4.53;;;15.40;99.90;;;;;;5074785;28;20440;-62
2021/07/21 02:35:44;;;;;;;7.13;6.53;;;15.00;97.90;;;;;;5074970;28;20405;-61
2021/07/21 02:38:11;;;;;;;6.03;5.53;;;15.10;99.90;;;;;;5074426;28;20432;-61
2021/07/21 02:40:37;;;;;;;6.60;6.00;;;15.00;99.60;;;;;;5074822;28;20175;-61
2021/07/21 02:43:02;;;;;;;6.23;5.63;;;14.90;99.40;;;;;;5074553;28;20778;-61
2021/07/21 02:45:28;;;;;;;5.03;4.60;;;14.90;99.90;;;;;;5074808;28;20171;-62
2021/07/21 02:47:54;;;;;;;5.53;4.97;;;15.00;99.90;;;;;;5074114;28;20202;-61
2021/07/21 02:50:20;;;;;;;5.50;5.00;;;14.90;99.40;;;;;;5074605;28;20175;-62
2021/07/21 02:52:55;;;;;;;6.83;6.00;;;14.90;99.90;;;;;;5074564;28;20198;-62
2021/07/21 02:55:28;;;;;;;6.10;5.53;;;14.90;99.90;;;;;;5074464;28;20426;-61
2021/07/21 02:58:08;;;;;;;6.20;5.30;;;15.00;99.90;;;;;;5074168;28;20409;-62
2021/07/21 03:00:35;;;;;;;5.60;5.30;;;15.00;99.90;;;;;;5074327;28;20512;-62
2021/07/21 03:03:09;;;;;;;5.57;5.07;;;14.80;99.90;;;;;;5074267;28;20413;-61
2021/07/21 03:05:37;;;;;;;5.67;4.77;;;14.90;99.90;;;;;;5074239;28;20436;-61
2021/07/21 03:08:03;;;;;;;6.43;5.83;;;14.80;99.70;;;;;;5073878;28;20461;-61
2021/07/21 03:10:30;;;;;;;5.97;5.47;;;14.70;99.90;;;;;;5074087;28;20406;-61
2021/07/21 03:13:05;;;;;;;5.63;5.10;;;14.60;99.90;;;;;;5074198;28;20459;-61
2021/07/21 03:15:35;;;;;;;6.20;5.67;;;14.70;99.90;;;;;;5074249;28;20462;-61
2021/07/21 03:18:02;;;;;;;5.57;5.07;;;14.80;99.90;;;;;;5073852;28;20425;-61
2021/07/21 03:20:29;;;;;;;5.77;5.20;;;14.90;99.90;;;;;;5073998;28;20409;-61
2021/07/21 03:22:57;;;;;;;5.00;4.60;;;14.90;99.90;;;;;;5073967;28;20405;-61
2021/07/21 03:25:25;;;;;;;6.90;5.63;;;14.90;99.90;;;;;;5073912;28;20398;-61
2021/07/21 03:27:53;;;;;;;6.67;5.30;;;14.90;99.90;;;;;;5073531;28;20491;-61
2021/07/21 03:30:19;;;;;;;6.17;5.53;;;14.60;98.90;;;;;;5073853;28;20402;-61
2021/07/21 03:32:46;;;;;;;5.60;5.10;;;14.80;99.90;;;;;;5073835;28;20407;-61
2021/07/21 03:35:13;;;;;;;7.90;6.10;;;14.80;99.90;;;;;;5072964;28;20175;-61
2021/07/21 03:37:45;;;;;;;5.80;5.20;;;14.50;98.60;;;;;;5073171;28;20433;-61
2021/07/21 03:40:12;;;;;;;5.17;4.67;;;14.30;98.10;;;;;;5073663;28;20416;-61
2021/07/21 03:42:38;;;;;;;6.50;5.90;;;14.50;99.90;;;;;;5073488;28;20420;-61
2021/07/21 03:45:11;;;;;;;4.93;4.53;;;14.60;99.90;;;;;;5073565;28;20413;-61
2021/07/21 03:47:39;;;;;;;5.97;5.47;;;14.70;99.90;;;;;;5072944;28;20524;-62
2021/07/21 03:50:06;;;;;;;5.37;4.87;;;14.80;99.90;;;;;;5073484;28;20957;-61
2021/07/21 03:52:33;;;;;;;6.00;5.03;;;14.80;99.90;;;;;;5073313;28;20497;-62
2021/07/21 03:54:58;;;;;;;4.80;4.40;;;14.80;99.90;;;;;;5073412;28;20408;-61
2021/07/21 03:57:25;;;;;;;5.03;4.53;;;14.60;99.80;;;;;;5072849;28;20793;-61
2021/07/21 03:59:51;;;;;;;4.90;4.50;;;14.60;99.90;;;;;;5073116;28;20217;-61
2021/07/21 04:02:18;;;;;;;6.20;5.70;;;14.70;99.90;;;;;;5073123;28;20402;-62
2021/07/21 04:04:46;;;;;;;6.27;5.67;;;14.80;99.90;;;;;;5073082;28;20258;-61
2021/07/21 04:07:14;;;;;;;7.27;6.57;;;14.60;99.90;;;;;;5072720;28;20410;-61
2021/07/21 04:09:41;;;;;;;5.73;5.13;;;14.50;99.30;;;;;;5072918;28;20449;-61
2021/07/21 04:12:08;;;;;;;5.93;5.23;;;14.60;99.90;;;;;;5073009;28;20397;-61
2021/07/21 04:14:35;;;;;;;6.00;4.63;;;14.60;99.90;;;;;;5072789;28;20398;-61
2021/07/21 04:17:02;;;;;;;5.20;4.70;;;14.60;99.90;;;;;;5072428;28;20425;-61
2021/07/21 04:19:28;;;;;;;6.33;5.40;;;14.60;99.90;;;;;;5072955;28;20408;-61
2021/07/21 04:21:55;;;;;;;5.57;5.07;;;14.60;99.90;;;;;;5072995;28;21008;-61
2021/07/21 04:24:23;;;;;;;5.30;4.83;;;14.70;99.90;;;;;;5072704;28;20412;-61
2021/07/21 04:26:50;;;;;;;5.07;4.60;;;14.80;99.90;;;;;;5072635;28;20408;-61
2021/07/21 04:29:18;;;;;;;5.90;5.40;;;14.80;99.90;;;;;;5072514;28;20812;-61
2021/07/21 04:31:45;;;;;;;5.27;4.77;;;14.90;99.90;;;;;;5072573;28;20479;-61
2021/07/21 04:34:14;;;;;;;5.97;5.47;;;15.00;99.90;;;;;;5072511;28;20398;-61
2021/07/21 04:36:40;;;;;;;5.47;4.97;;;15.00;99.90;;;;;;5072123;28;20394;-61
2021/07/21 04:39:07;;;;;;;5.43;4.93;;;15.00;99.90;;;;;;5072478;28;20434;-61
2021/07/21 04:41:33;;;;;;;5.57;5.07;;;15.10;99.90;;;;;;5072438;28;20408;-61
2021/07/21 04:44:01;;;;;;;5.57;5.17;;;15.20;99.90;;;;;;5072234;28;20406;-61
2021/07/21 04:46:28;;;;;;;5.73;5.23;;;15.20;99.90;;;;;;5072120;28;20466;-62
2021/07/21 04:48:55;;;;;;;4.83;4.40;;;15.20;99.90;;;;;;5072147;28;20453;-61
2021/07/21 04:51:22;;;;;;;6.07;5.57;;;15.30;99.90;;;;;;5072308;28;20409;-62
2021/07/21 04:53:53;;;;;;;6.00;5.40;;;15.50;99.90;;;;;;5073010;28;20818;-62
2021/07/21 04:56:19;;;;;;;6.00;4.50;;;15.60;99.90;;;;;;5071556;28;20401;-62
2021/07/21 04:58:45;;;;;;;8.70;5.70;;;15.60;99.90;;;;;;5072327;28;20456;-63
2021/07/21 05:01:14;;;;;;;12.67;6.07;;;15.70;99.90;;;;;;5072325;28;20600;-64
2021/07/21 05:03:40;;;;;;;10.37;6.07;;;15.70;99.90;;;;;;5072033;28;20635;-63
2021/07/21 05:06:05;;;;;;;10.33;5.00;;;15.70;99.90;;;;;;5072103;28;20493;-64
2021/07/21 05:08:31;;;;;;;9.20;5.13;;;15.70;99.90;;;;;;5071851;28;20202;-64
2021/07/21 05:10:57;;;;;;;6.70;5.10;;;15.70;99.90;;;;;;5072014;28;20668;-64
2021/07/21 05:13:22;;;;;;;7.87;5.97;;;15.80;99.90;;;;;;5071873;28;20167;-63
2021/07/21 05:15:49;;;;;;;14.87;7.40;;;15.70;99.90;;;;;;5072835;28;20173;-64
2021/07/21 05:18:15;;;;;;;9.80;6.73;;;15.80;99.90;;;;;;5072189;28;20183;-63
2021/07/21 05:20:41;;;;;;;9.87;6.10;;;15.90;99.90;;;;;;5072045;28;20410;-63
2021/07/21 05:23:07;;;;;;;8.10;6.40;;;16.00;99.90;;;;;;5071743;28;20401;-64
2021/07/21 05:25:33;;;;;;;9.47;5.43;;;16.10;99.90;;;;;;5071879;28;20493;-63
2021/07/21 05:27:58;;;;;;;5.47;4.90;;;16.20;99.90;;;;;;5071349;28;20965;-65
2021/07/21 05:30:24;;;;;;;7.20;6.50;;;16.30;99.90;;;;;;5072048;28;20649;-62
2021/07/21 05:32:50;;;;;;;8.27;5.50;;;16.40;99.90;;;;;;5071907;28;20171;-63
2021/07/21 05:35:15;;;;;;;12.60;5.87;;;16.50;99.90;;;;;;5071701;28;20250;-63
2021/07/21 05:37:41;;;;;;;7.07;6.37;;;16.60;99.90;;;;;;5071539;28;20187;-63
2021/07/21 05:40:07;;;;;;;5.57;4.97;;;16.60;99.90;;;;;;5071926;28;20554;-63
2021/07/21 05:42:33;;;;;;;8.17;5.33;;;16.70;99.90;;;;;;5071865;28;20206;-63
2021/07/21 05:44:58;;;;;;;7.60;6.60;;;16.70;99.90;;;;;;5072035;28;20453;-59
2021/07/21 05:47:24;;;;;;;7.23;5.90;;;16.70;99.90;;;;;;5071623;28;20299;-61
2021/07/21 05:49:50;;;;;;;9.13;4.77;;;16.70;99.90;;;;;;5071882;28;20170;-62
2021/07/21 05:52:16;;;;;;;8.73;5.43;;;16.60;99.90;;;;;;5072150;28;20179;-62
2021/07/21 05:54:42;;;;;;;6.40;5.40;;;16.60;99.90;;;;;;5071756;28;20540;-63
2021/07/21 05:57:08;;;;;;;7.33;5.70;;;16.70;99.90;;;;;;5071458;28;20431;-63
2021/07/21 05:59:34;;;;;;;9.20;6.13;;;16.90;99.90;;;;;;5074091;28;20218;-62
2021/07/21 06:01:59;;;;;;;8.00;5.40;;;17.00;99.90;;;;;;5075402;28;20448;-62
2021/07/21 06:04:25;;;;;;;8.63;6.50;;;17.10;99.90;;;;;;5075446;28;20177;-63
2021/07/21 06:06:51;;;;;;;6.80;5.23;;;17.20;99.90;;;;;;5074908;28;20263;-63
2021/07/21 06:09:16;;;;;;;11.80;5.37;;;17.30;99.90;;;;;;5075355;28;20234;-63
2021/07/21 06:11:42;;;;;;;7.67;5.37;;;17.30;99.90;;;;;;5075363;28;20159;-63
2021/07/21 06:14:08;;;;;;;8.83;5.83;;;17.40;99.90;;;;;;5075243;28;20673;-63
2021/07/21 06:16:34;;;;;;;6.00;5.40;;;17.40;99.70;;;;;;5075327;28;20397;-63
2021/07/21 06:19:00;;;;;;;9.27;5.83;;;17.60;99.60;;;;;;5075072;28;20191;-62
2021/07/21 06:21:26;;;;;;;4.90;4.50;;;17.60;99.50;;;;;;5075018;28;20408;-63
2021/07/21 06:23:52;;;;;;;9.90;6.77;;;17.70;99.20;;;;;;5073736;28;20409;-63
2021/07/21 06:26:19;;;;;;;8.47;7.03;;;17.70;99.10;;;;;;5056771;28;20504;-64
2021/07/21 06:28:45;;;;;;;18.33;7.10;;;17.80;99.00;;;;;;5073564;28;20452;-62
2021/07/21 06:31:11;;;;;;;8.70;5.60;;;17.70;98.90;;;;;;5075089;28;20405;-63
2021/07/21 06:33:37;;;;;;;8.10;5.50;;;17.90;99.00;;;;;;5073609;28;20404;-63
2021/07/21 06:36:03;;;;;;;6.47;5.27;;;17.90;98.80;;;;;;5073598;28;20402;-63
2021/07/21 06:38:30;;;;;;;5.47;4.97;;;17.90;98.60;;;;;;5075016;28;20451;-63
2021/07/21 06:40:55;;;;;;;12.20;8.67;;;17.80;98.50;;;;;;5073887;28;20415;-63
2021/07/21 06:43:22;;;;;;;8.13;6.13;;;17.80;98.40;;;;;;5057074;28;20905;-63
2021/07/21 06:45:48;;;;;;;10.17;5.87;;;17.60;97.90;;;;;;5057328;28;20249;-65
2021/07/21 06:48:14;;;;;;;12.07;5.90;;;17.60;98.20;;;;;;5074842;28;20445;-62
2021/07/21 06:50:40;;;;;;;5.80;5.30;;;17.70;98.60;;;;;;5057449;28;20905;-61
2021/07/21 06:53:06;;;;;;;8.23;6.03;;;17.70;98.60;;;;;;5074739;28;20492;-64
2021/07/21 06:55:33;;;;;;;8.23;5.80;;;17.70;97.80;;;;;;5074060;28;20458;-64
2021/07/21 06:58:01;;;;;;;6.93;6.10;;;17.80;98.00;;;;;;5073355;28;20429;-63
2021/07/21 07:00:28;;;;;;;7.37;6.67;;;17.90;98.50;;;;;;5057302;28;20417;-62
2021/07/21 07:02:55;;;;;;;9.30;6.47;;;17.80;97.80;;;;;;5056971;28;20412;-63
2021/07/21 07:05:21;;;;;;;6.23;5.63;;;17.80;98.30;;;;;;5073751;28;20401;-63
2021/07/21 07:07:47;;;;;;;8.47;6.80;;;17.60;96.70;;;;;;5072756;28;20485;-63
2021/07/21 07:10:13;;;;;;;8.03;7.10;;;17.60;97.10;;;;;;5072281;28;20444;-65
2021/07/21 07:12:39;;;;;;;7.80;7.10;;;17.50;95.80;;;;;;5073064;28;20172;-65
2021/07/21 07:15:07;;;;;;;6.80;6.17;;;17.50;97.20;;;;;;5074210;28;20405;-65
2021/07/21 07:17:33;;;;;;;14.53;7.03;;;17.60;96.90;;;;;;5072584;28;20451;-64
2021/07/21 07:19:59;;;;;;;10.00;6.60;;;17.60;96.50;;;;;;5073086;28;20811;-65
2021/07/21 07:22:26;;;;;;;8.20;7.40;;;17.50;96.10;;;;;;5056063;28;20413;-66
2021/07/21 07:24:52;;;;;;;8.20;6.23;;;17.60;97.00;;;;;;5074298;28;20554;-65
2021/07/21 07:27:18;;;;;;;9.87;6.10;;;17.60;96.50;;;;;;5056056;28;20421;-65
2021/07/21 07:29:44;;;;;;;7.10;6.00;;;17.60;96.40;;;;;;5072861;28;20456;-62
2021/07/21 07:32:10;;;;;;;5.33;4.83;;;17.70;96.80;;;;;;5056367;28;20406;-62
2021/07/21 07:34:35;;;;;;;6.87;6.30;;;17.90;96.80;;;;;;5073811;28;20901;-62
2021/07/21 07:37:01;;;;;;;7.43;6.73;;;17.90;96.30;;;;;;5073276;28;20190;-62
2021/07/21 07:39:27;;;;;;;8.37;7.37;;;18.10;96.80;;;;;;5073570;28;20171;-62
2021/07/21 07:41:52;;;;;;;8.10;5.53;;;18.20;96.10;;;;;;5073680;28;20163;-62
2021/07/21 07:44:18;;;;;;;7.60;6.80;;;18.30;96.30;;;;;;5073696;28;20199;-65
2021/07/21 07:46:44;;;;;;;7.90;5.80;;;18.20;95.10;;;;;;5055613;28;20182;-63
2021/07/21 07:49:11;;;;;;;6.33;5.40;;;18.30;94.90;;;;;;5055788;28;20191;-64
2021/07/21 07:51:37;;;;;;;9.97;6.23;;;18.40;95.80;;;;;;5072289;28;20418;-62
2021/07/21 07:54:04;;;;;;;8.93;6.53;;;18.40;94.30;;;;;;5073813;28;20459;-62
2021/07/21 07:56:31;;;;;;;7.07;6.37;;;18.50;94.60;;;;;;5073161;28;20212;-62
2021/07/21 07:58:57;;;;;;;6.77;5.70;;;18.70;94.90;;;;;;5073198;28;20807;-62
2021/07/21 08:01:23;;;;;;;7.10;6.40;;;18.70;94.20;;;;;;5073122;28;20433;-62
2021/07/21 08:03:49;;;;;;;9.67;7.60;;;18.80;94.80;;;;;;5073205;28;20418;-61
2021/07/21 08:06:15;;;;;;;7.50;6.50;;;18.90;94.30;;;;;;5072765;28;20432;-61
2021/07/21 08:08:40;;;;;;;7.13;5.90;;;18.90;92.70;;;;;;5073049;28;20238;-61
2021/07/21 08:11:06;;;;;;;11.43;6.53;;;18.90;93.10;;;;;;5055419;28;20545;-61
2021/07/21 08:13:32;;;;;;;8.70;7.80;;;19.00;93.70;;;;;;5073047;28;20171;-61
2021/07/21 08:15:59;;;;;;;11.23;6.87;;;19.10;93.00;;;;;;5054755;28;20500;-61
2021/07/21 08:18:24;;;;;;;9.60;7.07;;;19.30;93.90;;;;;;5072865;28;20461;-63
2021/07/21 08:20:50;;;;;;;6.83;6.13;;;19.50;93.60;;;;;;5072119;28;20437;-64
2021/07/21 08:23:16;;;;;;;10.73;6.47;;;19.60;92.80;;;;;;5071271;28;20175;-61
2021/07/21 08:25:43;;;;;;;7.97;7.17;;;19.80;93.20;;;;;;5072901;28;20410;-61
2021/07/21 08:28:11;;;;;;;6.90;6.13;;;19.90;92.40;;;;;;5071019;28;20506;-61
2021/07/21 08:30:37;;;;;;;10.00;6.90;;;20.10;92.40;;;;;;5072775;28;20409;-62
2021/07/21 08:33:03;;;;;;;8.20;7.30;;;20.20;92.30;;;;;;5071265;28;20459;-65
2021/07/21 08:35:31;;;;;;;8.40;7.40;;;20.40;92.30;;;;;;5072821;28;20409;-61
2021/07/21 08:38:01;;;;;;;7.73;6.93;;;20.50;91.80;;;;;;5071383;28;20929;-61
2021/07/21 08:40:28;;;;;;;6.90;6.23;;;20.70;91.80;;;;;;5071410;28;20500;-61
2021/07/21 08:42:54;;;;;;;9.43;6.20;;;20.80;91.70;;;;;;5072433;28;20459;-61
2021/07/21 08:45:20;;;;;;;7.87;7.07;;;20.90;91.90;;;;;;5072573;28;20405;-63
2021/07/21 08:47:46;;;;;;;10.50;7.47;;;21.00;91.10;;;;;;5072023;28;20686;-62
2021/07/21 08:50:13;;;;;;;6.77;5.63;;;21.20;91.20;;;;;;5072308;28;20167;-62
2021/07/21 08:52:39;;;;;;;7.93;7.00;;;21.20;91.00;;;;;;5072217;28;20441;-62
2021/07/21 08:55:07;;;;;;;10.13;6.50;;;21.30;90.00;;;;;;5072039;28;20444;-62
2021/07/21 08:57:34;;;;;;;7.93;6.53;;;21.40;89.30;;;;;;5071810;28;20227;-61
2021/07/21 09:00:00;;;;;;;6.50;5.77;;;21.60;90.20;;;;;;5072026;28;20750;-61
2021/07/21 09:02:27;;;;;;;10.83;8.00;;;21.80;90.30;;;;;;5072131;28;20441;-67
2021/07/21 09:04:53;;;;;;;8.73;7.03;;;21.90;88.70;;;;;;5072208;28;20445;-65
2021/07/21 09:07:19;;;;;;;8.93;7.03;;;21.90;85.50;;;;;;5071915;28;20425;-66
2021/07/21 09:09:46;;;;;;;6.97;5.90;;;22.10;87.10;;;;;;5072037;28;20956;-66
2021/07/21 09:12:12;;;;;;;6.87;6.00;;;22.30;87.80;;;;;;5072008;28;20548;-66
2021/07/21 09:14:39;;;;;;;7.93;6.47;;;22.10;84.80;;;;;;5071940;28;20413;-66
2021/07/21 09:17:07;;;;;;;8.00;7.30;;;22.10;85.80;;;;;;5071615;28;20926;-66
2021/07/21 09:19:38;;;;;;;8.03;7.23;;;22.30;86.00;;;;;;5072160;28;20409;-66
2021/07/21 09:22:14;;;;;;;7.83;7.13;;;22.50;87.50;;;;;;5072033;28;20406;-66
2021/07/21 09:24:40;;;;;;;11.10;7.80;;;22.80;87.10;;;;;;5071911;28;20432;-66
2021/07/21 09:27:06;;;;;;;9.47;8.50;;;23.00;88.70;;;;;;5071479;28;20520;-66
2021/07/21 09:29:31;;;;;;;7.97;7.20;;;23.00;84.40;;;;;;5071712;28;21004;-66
2021/07/21 09:32:02;;;;;;;6.60;5.90;;;23.10;84.10;;;;;;5071981;28;20203;-66
2021/07/21 09:34:29;;;;;;;7.47;6.70;;;23.30;88.20;;;;;;5071109;28;20178;-66
2021/07/21 09:37:09;;;;;;;9.03;8.17;;;23.80;87.20;;;;;;5071458;28;20470;-65
2021/07/21 09:39:40;;;;;;;8.40;7.60;;;23.80;82.00;;;;;;5071855;28;20432;-65
2021/07/21 09:42:07;;;;;;;8.10;6.93;;;23.70;81.30;;;;;;5071669;28;20413;-66
2021/07/21 09:44:44;;;;;;;7.43;6.77;;;23.60;81.50;;;;;;5072969;28;20785;-65
2021/07/21 09:47:09;;;;;;;10.07;7.37;;;23.50;82.30;;;;;;5071548;28;20508;-66
2021/07/21 09:49:35;;;;;;;9.30;6.63;;;23.40;82.90;;;;;;5072059;28;20547;-63
2021/07/21 09:52:21;;;;;;;7.20;6.57;;;23.50;83.80;;;;;;5072826;28;20539;-63
2021/07/21 09:55:23;;;;;;;6.70;6.07;;;23.70;81.70;;;;;;5071852;28;20171;-64
2021/07/21 09:57:59;;;;;;;7.73;6.73;;;23.90;85.00;;;;;;5069217;28;20542;-65
2021/07/21 10:00:30;;;;;;;7.27;6.60;;;24.10;82.50;;;;;;5071103;28;20940;-65
2021/07/21 10:03:21;;;;;;;7.60;6.90;;;24.40;83.10;;;;;;5071639;28;20777;-64
2021/07/21 10:06:03;;;;;;;10.03;8.93;;;24.60;81.20;;;;;;5071504;28;20451;-65
2021/07/21 10:08:34;;;;;;;6.80;6.20;;;24.70;81.80;;;;;;5071366;28;20504;-66
2021/07/21 10:11:24;;;;;;;8.40;7.60;;;24.80;80.00;;;;;;5071422;28;20409;-63
2021/07/21 10:13:50;;;;;;;7.10;6.50;;;25.00;82.10;;;;;;5071529;28;20809;-64
2021/07/21 10:16:44;;;;;;;8.47;7.77;;;25.20;83.50;;;;;;5071249;28;20424;-64
2021/07/21 10:19:15;;;;;;;7.80;7.07;;;25.30;80.40;;;;;;5071774;28;20819;-65
2021/07/21 10:21:43;;;;;;;5.53;5.13;;;26.00;78.90;;;;;;5071940;28;20471;-65
2021/07/21 10:24:10;;;;;;;8.63;7.37;;;26.00;79.20;;;;;;5071798;28;20409;-65
2021/07/21 10:26:37;;;;;;;8.60;7.20;;;26.20;78.40;;;;;;5071580;28;20474;-64
2021/07/21 10:29:04;;;;;;;7.40;6.80;;;26.80;78.80;;;;;;5071718;28;20510;-64
2021/07/21 10:31:30;;;;;;;10.63;6.03;;;27.00;78.60;;;;;;5071322;28;20407;-64
2021/07/21 10:33:56;;;;;;;8.40;7.60;;;27.10;80.30;;;;;;5071728;28;20433;-64
2021/07/21 10:36:22;;;;;;;7.97;7.10;;;27.30;75.70;;;;;;5071001;28;20178;-64
2021/07/21 10:38:48;;;;;;;8.60;6.77;;;27.30;76.60;;;;;;5071180;28;20429;-66
2021/07/21 10:41:15;;;;;;;11.23;8.10;;;27.10;77.30;;;;;;5071180;28;20429;-64
2021/07/21 10:43:50;;;;;;;8.73;7.83;;;27.20;73.40;;;;;;5071273;28;20420;-65
2021/07/21 10:46:35;;;;;;;9.83;7.33;;;27.00;73.60;;;;;;5074346;28;20416;-64
2021/07/21 10:49:14;;;;;;;8.03;7.27;;;27.00;75.10;;;;;;5074618;28;20456;-63
2021/07/21 10:55:04;;;;;;;11.03;7.27;;;27.20;75.90;;;;;;5083569;28;20409;-63
2021/07/21 11:00:23;;;;;;;8.43;7.63;;;28.10;77.00;;;;;;5074585;28;20424;-65
2021/07/21 11:02:50;;;;;;;9.03;8.13;;;28.00;71.60;;;;;;5074461;28;20413;-65
2021/07/21 11:05:40;;;;;;;9.33;8.37;;;28.50;74.10;;;;;;5074269;28;20401;-65
2021/07/21 11:08:14;;;;;;;9.47;8.57;;;28.80;70.40;;;;;;5074161;28;20449;-64
2021/07/21 11:10:45;;;;;;;8.67;7.87;;;29.00;71.30;;;;;;5074172;28;20417;-65
2021/07/21 11:13:36;;;;;;;9.00;8.20;;;29.00;68.70;;;;;;5074197;28;20401;-64
2021/07/21 11:16:04;;;;;;;8.80;8.00;;;28.70;69.10;;;;;;5073874;28;20401;-65
2021/07/21 11:18:42;;;;;;;10.40;8.00;;;28.70;66.50;;;;;;5074342;28;20870;-66
2021/07/21 11:21:14;;;;;;;10.03;6.30;;;28.80;69.80;;;;;;5073981;28;20856;-66
2021/07/21 11:23:40;;;;;;;8.83;7.70;;;29.00;66.60;;;;;;5074019;28;20841;-65
2021/07/21 11:26:34;;;;;;;7.70;7.10;;;29.00;67.50;;;;;;5073570;28;20410;-65
2021/07/21 11:29:22;;;;;;;8.27;7.57;;;29.20;69.10;;;;;;5073950;28;20476;-65
2021/07/21 11:31:54;;;;;;;9.03;8.13;;;29.50;66.90;;;;;;5073730;28;20424;-65
2021/07/21 11:34:29;;;;;;;8.00;7.20;;;29.50;66.20;;;;;;5073667;28;20408;-65
2021/07/21 11:37:02;;;;;;;7.63;7.03;;;29.60;63.30;;;;;;5073247;28;20397;-65
2021/07/21 11:39:56;;;;;;;6.80;6.20;;;29.90;65.40;;;;;;5073811;28;20413;-65
2021/07/21 11:42:29;;;;;;;10.83;7.93;;;30.30;68.30;;;;;;5073585;28;20429;-65
2021/07/21 11:45:11;;;;;;;10.00;7.20;;;30.10;60.90;;;;;;5073454;28;20940;-65
2021/07/21 11:47:40;;;;;;;7.07;6.47;;;30.10;67.30;;;;;;5073092;28;20456;-67
2021/07/21 11:50:09;;;;;;;7.23;6.53;;;30.50;69.60;;;;;;5073576;28;20405;-65
2021/07/21 11:52:35;;;;;;;8.50;7.73;;;30.20;66.70;;;;;;5073487;28;20916;-64
2021/07/21 11:55:01;;;;;;;8.20;7.40;;;30.40;64.30;;;;;;5073573;28;20791;-65
2021/07/21 11:57:27;;;;;;;9.80;7.57;;;30.60;62.10;;;;;;5072353;28;20429;-65
2021/07/21 11:59:58;;;;;;;8.63;7.80;;;30.60;65.60;;;;;;5073262;28;20211;-65
2021/07/21 12:02:25;;;;;;;8.47;7.60;;;30.80;62.60;;;;;;5073129;28;20947;-65
2021/07/21 12:04:55;;;;;;;8.23;7.43;;;30.50;60.30;;;;;;5073325;28;20489;-65
2021/07/21 12:07:23;;;;;;;9.43;8.53;;;30.40;60.60;;;;;;5072731;28;20425;-66
2021/07/21 12:09:51;;;;;;;8.40;7.70;;;30.60;69.80;;;;;;5073190;28;20451;-66
2021/07/21 12:12:19;;;;;;;10.13;9.10;;;31.00;65.80;;;;;;5073201;28;20417;-66
2021/07/21 12:14:56;;;;;;;10.47;8.90;;;31.10;59.50;;;;;;5072948;28;20406;-66
2021/07/21 12:17:25;;;;;;;9.30;8.40;;;30.90;64.20;;;;;;5072788;28;20429;-65
2021/07/21 12:20:03;;;;;;;8.77;7.93;;;31.30;67.20;;;;;;5073028;28;20973;-66
2021/07/21 12:22:31;;;;;;;8.67;7.67;;;31.30;60.00;;;;;;5072720;28;20405;-67
2021/07/21 12:24:59;;;;;;;9.00;8.23;;;31.50;60.00;;;;;;5072858;28;20808;-65
2021/07/21 12:27:39;;;;;;;9.90;7.93;;;31.50;59.30;;;;;;5072627;28;20456;-66
2021/07/21 12:30:08;;;;;;;8.20;7.60;;;31.00;58.80;;;;;;5072840;28;20409;-65
2021/07/21 12:32:35;;;;;;;8.37;7.67;;;31.10;59.30;;;;;;5072863;28;20516;-65
2021/07/21 12:35:01;;;;;;;8.93;8.07;;;31.10;58.90;;;;;;5072580;28;20488;-65
2021/07/21 12:37:29;;;;;;;7.93;7.30;;;31.30;61.30;;;;;;5072310;28;20446;-65
2021/07/21 12:39:56;;;;;;;8.57;7.87;;;31.20;58.70;;;;;;5072670;28;20390;-66
2021/07/21 12:42:28;;;;;;;8.37;7.40;;;31.60;64.90;;;;;;5072559;28;20390;-66
2021/07/21 12:44:53;;;;;;;9.37;8.57;;;31.80;62.70;;;;;;5072402;28;20398;-65
2021/07/21 12:47:23;;;;;;;8.40;7.53;;;31.40;59.90;;;;;;5072011;28;20441;-66
2021/07/21 12:49:55;;;;;;;8.50;7.70;;;31.50;58.30;;;;;;5072452;28;20197;-65
2021/07/21 12:52:27;;;;;;;8.43;7.63;;;31.70;60.50;;;;;;5072464;28;20409;-67
2021/07/21 12:54:55;;;;;;;11.00;7.70;;;32.00;60.40;;;;;;5072251;28;20406;-66
2021/07/21 12:57:39;;;;;;;8.50;7.80;;;32.30;61.00;;;;;;5071982;28;20933;-68
2021/07/21 13:00:24;;;;;;;7.93;7.23;;;32.30;56.90;;;;;;5071845;28;20441;-65
2021/07/21 13:03:01;;;;;;;13.77;8.40;;;32.40;60.70;;;;;;5072308;28;20437;-65